Time;durP1;ratioP1;P1;durP2;ratioP2;P2;SDS_P1;SDS_P2;PMS_P1;PMS_P2;Temp;Humidity;BMP_temperature;BMP_pressure;BME280_temperature;BME280_humidity;BME280_pressure;Samples;Min_cycle;Max_cycle;Signal;HPM_P1;HPM_P2
2022/06/07 00:01:11;;;;;;;13.02;5.68;;;;;;;;;;5077837;28;20041;-67
2022/06/07 00:03:38;;;;;;;8.70;5.50;;;;;;;;;;5071202;28;20512;-67
2022/06/07 00:06:04;;;;;;;11.20;6.00;;;;;;;;;;5084480;28;20119;-67
2022/06/07 00:08:31;;;;;;;10.30;6.20;;;;;;;;;;5074242;28;20043;-67
2022/06/07 00:10:57;;;;;;;18.92;6.82;;;;;;;;;;5084702;28;20032;-68
2022/06/07 00:13:23;;;;;;;10.18;5.97;;;;;;;;;;5071777;28;20044;-67
2022/06/07 00:15:49;;;;;;;10.63;5.50;;;;;;;;;;5088691;28;20040;-67
2022/06/07 00:18:15;;;;;;;11.77;6.60;;;;;;;;;;5084575;28;20040;-67
2022/06/07 00:20:42;;;;;;;14.60;6.40;;;;;;;;;;5086021;28;20032;-66
2022/06/07 00:23:10;;;;;;;13.32;5.57;;;;;;;;;;5084257;28;20051;-67
2022/06/07 00:25:36;;;;;;;9.23;5.88;;;;;;;;;;5083351;28;20032;-67
2022/06/07 00:28:03;;;;;;;10.13;5.50;;;;;;;;;;5074349;28;20436;-67
2022/06/07 00:30:30;;;;;;;12.18;5.10;;;;;;;;;;5080777;28;20035;-67
2022/06/07 00:32:56;;;;;;;17.35;6.43;;;;;;;;;;5086073;28;20051;-67
2022/06/07 00:35:23;;;;;;;14.27;5.50;;;;;;;;;;5081582;28;20421;-67
2022/06/07 00:37:49;;;;;;;8.35;4.88;;;;;;;;;;5087183;28;20488;-66
2022/06/07 00:40:16;;;;;;;14.80;5.65;;;;;;;;;;5087483;28;20524;-67
2022/06/07 00:42:42;;;;;;;12.93;5.68;;;;;;;;;;5081509;28;20047;-67
2022/06/07 00:45:14;;;;;;;11.20;4.55;;;;;;;;;;5090358;28;20082;-67
2022/06/07 00:47:40;;;;;;;9.63;5.45;;;;;;;;;;5085821;28;20119;-66
2022/06/07 00:50:08;;;;;;;10.07;5.15;;;;;;;;;;5085898;28;20036;-67
2022/06/07 00:52:35;;;;;;;10.85;5.43;;;;;;;;;;5090303;28;20046;-66
2022/06/07 00:55:02;;;;;;;11.70;5.93;;;;;;;;;;5082714;28;20044;-67
2022/06/07 00:57:28;;;;;;;10.52;4.93;;;;;;;;;;5083476;28;20486;-67
2022/06/07 00:59:54;;;;;;;8.05;5.13;;;;;;;;;;5088481;28;20097;-67
2022/06/07 01:02:22;;;;;;;8.90;4.53;;;;;;;;;;5078411;28;20498;-67
2022/06/07 01:04:48;;;;;;;9.18;5.00;;;;;;;;;;5080014;28;20488;-69
2022/06/07 01:12:44;;;;;;;9.45;5.25;;;;;;;;;;5073506;28;20446;-67
2022/06/07 01:15:12;;;;;;;10.65;4.80;;;;;;;;;;5085993;28;20105;-67
2022/06/07 01:17:38;;;;;;;12.68;6.65;;;;;;;;;;5088486;28;20048;-67
2022/06/07 01:20:04;;;;;;;13.00;5.45;;;;;;;;;;5092737;28;20063;-66
2022/06/07 01:22:31;;;;;;;9.88;5.13;;;;;;;;;;5089750;28;20501;-67
2022/06/07 01:24:57;;;;;;;9.13;5.35;;;;;;;;;;5087278;28;20458;-67
2022/06/07 01:27:23;;;;;;;10.73;5.60;;;;;;;;;;5086261;28;20418;-67
2022/06/07 01:29:49;;;;;;;16.40;6.07;;;;;;;;;;5080000;28;20044;-66
2022/06/07 01:32:16;;;;;;;11.20;6.15;;;;;;;;;;5081417;28;20115;-67
2022/06/07 01:34:43;;;;;;;8.63;5.07;;;;;;;;;;5082780;28;20119;-67
2022/06/07 01:37:11;;;;;;;11.70;5.43;;;;;;;;;;5086878;28;20083;-67
2022/06/07 01:42:22;;;;;;;11.70;5.47;;;;;;;;;;5089719;28;20051;-66
2022/06/07 01:44:49;;;;;;;15.13;6.38;;;;;;;;;;5078688;28;20390;-67
2022/06/07 01:47:17;;;;;;;12.30;5.97;;;;;;;;;;5078615;28;20048;-67
2022/06/07 01:49:43;;;;;;;12.07;5.45;;;;;;;;;;5082851;28;20028;-67
2022/06/07 01:52:11;;;;;;;12.18;6.50;;;;;;;;;;5088859;28;20089;-67
2022/06/07 01:54:37;;;;;;;14.73;6.43;;;;;;;;;;5077369;28;20138;-67
2022/06/07 01:57:05;;;;;;;16.80;7.07;;;;;;;;;;5081034;28;20126;-67
2022/06/07 01:59:32;;;;;;;12.13;6.97;;;;;;;;;;5082364;28;20090;-67
2022/06/07 02:01:58;;;;;;;16.92;7.07;;;;;;;;;;5089398;28;20401;-66
2022/06/07 02:04:24;;;;;;;9.15;6.35;;;;;;;;;;5079338;28;20343;-67
2022/06/07 02:06:50;;;;;;;10.27;6.75;;;;;;;;;;5078114;28;20056;-67
2022/06/07 02:09:17;;;;;;;17.13;7.70;;;;;;;;;;5073203;28;20135;-67
2022/06/07 02:11:43;;;;;;;10.10;6.60;;;;;;;;;;5079104;28;20047;-67
2022/06/07 02:14:10;;;;;;;9.25;6.10;;;;;;;;;;5085889;28;20083;-67
2022/06/07 02:16:36;;;;;;;8.75;5.70;;;;;;;;;;5088345;28;20125;-67
2022/06/07 02:19:03;;;;;;;8.75;6.05;;;;;;;;;;5087581;28;20032;-67
2022/06/07 02:21:29;;;;;;;16.55;6.85;;;;;;;;;;5069458;28;20044;-67
2022/06/07 02:23:55;;;;;;;11.07;6.68;;;;;;;;;;5084479;28;20045;-67
2022/06/07 02:26:26;;;;;;;10.43;5.90;;;;;;;;;;5083216;28;20493;-67
2022/06/07 02:28:54;;;;;;;14.10;7.75;;;;;;;;;;5084219;28;20040;-67
2022/06/07 02:31:21;;;;;;;8.68;6.10;;;;;;;;;;5081620;28;20044;-67
2022/06/07 02:33:47;;;;;;;10.45;6.00;;;;;;;;;;5087179;28;20039;-67
2022/06/07 02:36:14;;;;;;;11.88;5.50;;;;;;;;;;5075089;28;20040;-67
2022/06/07 02:38:41;;;;;;;12.15;4.82;;;;;;;;;;5088872;28;20084;-67
2022/06/07 02:41:10;;;;;;;14.55;6.95;;;;;;;;;;5086988;28;20126;-67
2022/06/07 02:43:36;;;;;;;8.30;5.50;;;;;;;;;;5088405;28;20197;-66
2022/06/07 02:46:02;;;;;;;10.35;5.35;;;;;;;;;;5080109;28;20034;-66
2022/06/07 02:48:29;;;;;;;11.82;5.43;;;;;;;;;;5088940;28;20035;-67
2022/06/07 02:50:55;;;;;;;11.43;6.07;;;;;;;;;;5079767;28;20485;-66
2022/06/07 02:53:21;;;;;;;11.57;5.55;;;;;;;;;;5086338;28;20040;-66
2022/06/07 02:55:47;;;;;;;13.93;7.35;;;;;;;;;;5079755;28;20096;-67
2022/06/07 02:58:13;;;;;;;12.60;6.57;;;;;;;;;;5089783;28;20040;-67
2022/06/07 03:00:40;;;;;;;12.45;6.28;;;;;;;;;;5086032;28;20040;-67
2022/06/07 03:03:06;;;;;;;16.08;7.20;;;;;;;;;;5087750;28;20086;-67
2022/06/07 03:05:32;;;;;;;13.00;5.68;;;;;;;;;;5078330;28;20115;-66
2022/06/07 03:07:58;;;;;;;14.38;6.95;;;;;;;;;;5089002;28;20036;-67
2022/06/07 03:10:24;;;;;;;13.40;6.28;;;;;;;;;;5082374;28;20036;-67
2022/06/07 03:12:50;;;;;;;14.52;6.70;;;;;;;;;;5088446;28;20043;-67
2022/06/07 03:15:16;;;;;;;11.70;5.95;;;;;;;;;;5077624;28;20060;-66
2022/06/07 03:17:44;;;;;;;9.30;5.10;;;;;;;;;;5087613;28;20044;-66
2022/06/07 03:20:11;;;;;;;11.15;5.85;;;;;;;;;;5081178;28;20478;-66
2022/06/07 03:22:37;;;;;;;10.82;4.47;;;;;;;;;;5086536;28;20405;-66
2022/06/07 03:25:05;;;;;;;10.18;5.03;;;;;;;;;;5082427;28;20032;-67
2022/06/07 03:27:32;;;;;;;13.43;4.47;;;;;;;;;;5082078;28;20033;-66
2022/06/07 03:29:58;;;;;;;8.18;4.53;;;;;;;;;;5084014;28;20036;-67
2022/06/07 03:32:25;;;;;;;11.57;4.15;;;;;;;;;;5084264;28;20044;-66
2022/06/07 03:34:51;;;;;;;10.32;4.97;;;;;;;;;;5078985;28;20044;-66
2022/06/07 03:37:17;;;;;;;10.70;5.07;;;;;;;;;;5071351;28;20162;-66
2022/06/07 03:39:44;;;;;;;9.45;5.07;;;;;;;;;;5083714;28;20110;-67
2022/06/07 03:42:12;;;;;;;9.15;5.18;;;;;;;;;;5080835;28;20065;-66
2022/06/07 03:44:39;;;;;;;7.80;4.85;;;;;;;;;;5082168;28;20060;-66
2022/06/07 03:47:05;;;;;;;9.25;4.53;;;;;;;;;;5084900;28;20127;-66
2022/06/07 03:49:31;;;;;;;9.75;4.80;;;;;;;;;;5077783;28;20174;-67
2022/06/07 03:51:58;;;;;;;9.80;5.57;;;;;;;;;;5076527;28;20532;-67
2022/06/07 03:54:24;;;;;;;10.35;5.25;;;;;;;;;;5079781;28;20044;-67
2022/06/07 03:56:50;;;;;;;9.15;4.82;;;;;;;;;;5079321;28;20065;-67
2022/06/07 03:59:17;;;;;;;13.98;5.25;;;;;;;;;;5088152;28;20048;-67
2022/06/07 04:01:43;;;;;;;9.63;5.97;;;;;;;;;;5086370;28;20039;-66
2022/06/07 04:04:09;;;;;;;13.88;4.72;;;;;;;;;;5082677;28;20089;-67
2022/06/07 04:06:39;;;;;;;11.82;6.13;;;;;;;;;;5078974;28;20024;-67
2022/06/07 04:09:06;;;;;;;12.20;5.78;;;;;;;;;;5080202;28;20323;-67
2022/06/07 04:11:32;;;;;;;11.65;5.93;;;;;;;;;;5066431;28;20036;-67
2022/06/07 04:13:59;;;;;;;11.85;7.15;;;;;;;;;;5082842;28;20494;-67
2022/06/07 04:16:27;;;;;;;15.30;5.63;;;;;;;;;;5084724;28;20254;-67
2022/06/07 04:18:56;;;;;;;15.15;6.43;;;;;;;;;;5082038;28;20032;-66
2022/06/07 04:21:23;;;;;;;14.10;6.32;;;;;;;;;;5083660;28;20036;-67
2022/06/07 04:23:49;;;;;;;16.33;6.65;;;;;;;;;;5081421;28;20508;-66
2022/06/07 04:26:17;;;;;;;28.17;6.38;;;;;;;;;;5082169;28;20101;-67
2022/06/07 04:28:43;;;;;;;25.67;7.80;;;;;;;;;;5086107;28;20040;-67
2022/06/07 04:31:11;;;;;;;13.57;6.95;;;;;;;;;;5087557;28;20636;-67
2022/06/07 04:33:37;;;;;;;16.20;7.10;;;;;;;;;;5085360;28;20044;-67
2022/06/07 04:36:09;;;;;;;12.05;6.93;;;;;;;;;;5087451;28;20051;-67
2022/06/07 04:38:35;;;;;;;13.05;7.38;;;;;;;;;;5086064;28;20109;-67
2022/06/07 04:41:01;;;;;;;12.48;5.70;;;;;;;;;;5082531;28;20048;-68
2022/06/07 04:43:28;;;;;;;8.32;5.95;;;;;;;;;;5083923;28;20083;-67
2022/06/07 04:46:02;;;;;;;12.35;6.10;;;;;;;;;;5081460;28;20040;-67
2022/06/07 04:48:28;;;;;;;14.50;6.70;;;;;;;;;;5076630;28;20040;-69
2022/06/07 04:51:05;;;;;;;10.32;6.22;;;;;;;;;;5080191;28;20032;-67
2022/06/07 04:53:31;;;;;;;15.82;5.65;;;;;;;;;;5079061;28;20450;-67
2022/06/07 04:55:59;;;;;;;11.80;5.85;;;;;;;;;;5082920;28;20079;-67
2022/06/07 04:58:26;;;;;;;13.05;6.28;;;;;;;;;;5077608;28;20040;-67
2022/06/07 05:00:52;;;;;;;12.27;5.97;;;;;;;;;;5083962;28;20066;-67
2022/06/07 05:03:19;;;;;;;11.05;5.95;;;;;;;;;;5081904;28;20123;-67
2022/06/07 05:05:45;;;;;;;12.80;6.45;;;;;;;;;;5086506;28;20254;-67
2022/06/07 05:08:11;;;;;;;18.80;7.03;;;;;;;;;;5081547;28;20040;-66
2022/06/07 05:10:39;;;;;;;13.48;5.32;;;;;;;;;;5085212;28;20032;-66
2022/06/07 05:13:05;;;;;;;6.75;4.00;;;;;;;;;;5084472;28;20070;-66
2022/06/07 05:15:32;;;;;;;7.63;4.25;;;;;;;;;;5083296;28;20050;-66
2022/06/07 05:17:58;;;;;;;12.98;4.22;;;;;;;;;;5079521;28;20490;-67
2022/06/07 05:20:24;;;;;;;8.52;3.00;;;;;;;;;;5085245;28;20088;-67
2022/06/07 05:22:50;;;;;;;10.13;4.30;;;;;;;;;;5085723;28;20386;-66
2022/06/07 05:25:16;;;;;;;14.13;5.40;;;;;;;;;;5085776;28;20037;-67
2022/06/07 05:27:45;;;;;;;7.93;5.20;;;;;;;;;;5080723;28;20445;-66
2022/06/07 05:30:12;;;;;;;8.85;4.82;;;;;;;;;;5084520;28;20040;-66
2022/06/07 05:32:38;;;;;;;6.72;2.20;;;;;;;;;;5089165;28;20036;-67
2022/06/07 05:35:06;;;;;;;6.07;2.55;;;;;;;;;;5087256;28;20105;-67
2022/06/07 05:37:34;;;;;;;7.15;2.72;;;;;;;;;;5081882;28;20039;-67
2022/06/07 05:40:02;;;;;;;12.02;3.35;;;;;;;;;;5084606;28;20036;-67
2022/06/07 05:42:29;;;;;;;7.00;2.60;;;;;;;;;;5083227;28;20074;-66
2022/06/07 05:44:55;;;;;;;10.48;3.40;;;;;;;;;;5085319;28;20533;-67
2022/06/07 05:47:21;;;;;;;6.95;2.95;;;;;;;;;;5086180;28;20032;-67
2022/06/07 05:49:47;;;;;;;10.80;3.13;;;;;;;;;;5088095;28;20085;-67
2022/06/07 05:52:13;;;;;;;7.90;2.92;;;;;;;;;;5085617;28;20404;-67
2022/06/07 05:54:39;;;;;;;8.57;2.92;;;;;;;;;;5079624;28;20123;-66
2022/06/07 05:57:06;;;;;;;11.90;2.47;;;;;;;;;;5079069;28;20036;-67
2022/06/07 05:59:32;;;;;;;10.20;2.53;;;;;;;;;;5092747;28;20165;-67
2022/06/07 06:01:59;;;;;;;8.20;3.60;;;;;;;;;;5083721;28;20036;-67
2022/06/07 06:04:25;;;;;;;6.72;2.25;;;;;;;;;;5094940;28;20096;-67
2022/06/07 06:06:54;;;;;;;6.15;2.85;;;;;;;;;;5086562;28;20101;-67
2022/06/07 06:12:05;;;;;;;12.98;3.42;;;;;;;;;;5093890;28;20680;-67
2022/06/07 06:14:33;;;;;;;10.07;3.72;;;;;;;;;;5097902;28;20067;-66
2022/06/07 06:16:59;;;;;;;5.22;2.67;;;;;;;;;;5080190;28;20510;-67
2022/06/07 06:19:25;;;;;;;9.10;4.53;;;;;;;;;;5077249;28;20087;-67
2022/06/07 06:21:51;;;;;;;11.45;3.38;;;;;;;;;;5094823;28;20067;-67
2022/06/07 06:24:18;;;;;;;9.27;3.58;;;;;;;;;;5095664;28;20374;-66
2022/06/07 06:26:44;;;;;;;20.25;4.95;;;;;;;;;;5097200;28;20473;-67
2022/06/07 06:29:11;;;;;;;12.00;4.80;;;;;;;;;;5090319;28;20478;-67
2022/06/07 06:31:38;;;;;;;14.93;4.20;;;;;;;;;;5087235;28;20032;-67
2022/06/07 06:34:04;;;;;;;10.57;4.18;;;;;;;;;;5087686;28;20043;-67
2022/06/07 06:36:31;;;;;;;16.58;5.43;;;;;;;;;;5088665;28;20486;-67
2022/06/07 06:38:57;;;;;;;10.00;3.95;;;;;;;;;;5084936;28;20043;-67
2022/06/07 06:41:23;;;;;;;12.35;3.75;;;;;;;;;;5081048;28;20036;-67
2022/06/07 06:43:50;;;;;;;7.55;3.45;;;;;;;;;;5093339;28;20573;-67
2022/06/07 06:46:21;;;;;;;12.32;3.42;;;;;;;;;;5088143;28;20084;-67
2022/06/07 06:48:47;;;;;;;8.95;3.47;;;;;;;;;;5091303;28;20044;-67
2022/06/07 06:51:17;;;;;;;8.48;2.92;;;;;;;;;;5089451;28;20059;-67
2022/06/07 06:53:43;;;;;;;8.00;2.90;;;;;;;;;;5096634;28;20150;-67
2022/06/07 06:56:11;;;;;;;8.85;3.13;;;;;;;;;;5072372;28;20047;-67
2022/06/07 06:58:38;;;;;;;8.35;3.45;;;;;;;;;;5087363;28;20089;-67
2022/06/07 07:01:04;;;;;;;11.93;3.88;;;;;;;;;;5082388;28;20041;-67
2022/06/07 07:03:30;;;;;;;9.57;3.30;;;;;;;;;;5077517;28;20058;-67
2022/06/07 07:05:56;;;;;;;11.75;4.03;;;;;;;;;;5090941;28;20040;-67
2022/06/07 07:08:24;;;;;;;8.25;3.15;;;;;;;;;;5089485;28;20241;-68
2022/06/07 07:10:51;;;;;;;7.43;3.22;;;;;;;;;;5090881;28;20413;-67
2022/06/07 07:13:17;;;;;;;7.20;2.65;;;;;;;;;;5087386;28;20109;-67
2022/06/07 07:15:47;;;;;;;8.57;3.17;;;;;;;;;;5097890;28;20035;-67
2022/06/07 07:18:13;;;;;;;6.53;2.60;;;;;;;;;;5099949;28;20118;-67
2022/06/07 07:20:40;;;;;;;15.13;3.22;;;;;;;;;;5089639;28;20048;-67
2022/06/07 07:23:06;;;;;;;7.03;2.35;;;;;;;;;;5083530;28;20373;-67
2022/06/07 07:25:32;;;;;;;5.90;2.10;;;;;;;;;;5087152;28;20130;-67
2022/06/07 07:27:59;;;;;;;11.68;2.85;;;;;;;;;;5080586;28;20447;-67
2022/06/07 07:30:25;;;;;;;9.20;2.58;;;;;;;;;;5099284;28;20108;-67
2022/06/07 07:32:51;;;;;;;8.50;2.67;;;;;;;;;;5100958;28;20223;-68
2022/06/07 07:35:18;;;;;;;12.80;3.13;;;;;;;;;;5091346;28;20090;-67
2022/06/07 07:37:45;;;;;;;13.20;3.10;;;;;;;;;;5079005;28;20413;-67
2022/06/07 07:40:11;;;;;;;11.80;2.80;;;;;;;;;;5100185;28;20274;-67
2022/06/07 07:42:37;;;;;;;8.70;2.95;;;;;;;;;;5091596;28;20409;-67
2022/06/07 07:45:04;;;;;;;10.45;4.38;;;;;;;;;;5102487;28;20116;-67
2022/06/07 07:47:30;;;;;;;10.20;3.28;;;;;;;;;;5094016;28;21334;-67
2022/06/07 07:49:56;;;;;;;27.25;4.25;;;;;;;;;;5084864;28;20037;-67
2022/06/07 07:52:23;;;;;;;8.38;3.33;;;;;;;;;;5070781;28;20036;-67
2022/06/07 07:54:49;;;;;;;7.10;2.80;;;;;;;;;;5082307;28;20556;-67
2022/06/07 07:57:16;;;;;;;10.25;3.03;;;;;;;;;;5095817;28;20119;-68
2022/06/07 07:59:42;;;;;;;7.10;2.28;;;;;;;;;;5089955;28;20040;-68
2022/06/07 08:02:15;;;;;;;13.80;2.85;;;;;;;;;;5091797;28;20525;-67
2022/06/07 08:04:41;;;;;;;8.40;2.95;;;;;;;;;;5090483;28;20140;-68
2022/06/07 08:07:07;;;;;;;6.88;2.15;;;;;;;;;;5081985;28;20402;-67
2022/06/07 08:09:34;;;;;;;8.85;2.90;;;;;;;;;;5070066;28;20040;-68
2022/06/07 08:12:05;;;;;;;5.07;2.28;;;;;;;;;;5099816;28;20048;-67
2022/06/07 08:14:32;;;;;;;11.07;2.42;;;;;;;;;;5094282;28;20374;-68
2022/06/07 08:16:58;;;;;;;9.82;1.90;;;;;;;;;;5083789;28;20474;-68
2022/06/07 08:19:24;;;;;;;12.48;3.67;;;;;;;;;;5087023;28;20051;-68
2022/06/07 08:21:50;;;;;;;7.90;2.17;;;;;;;;;;5075885;28;20243;-68
2022/06/07 08:24:17;;;;;;;5.82;2.10;;;;;;;;;;5087468;28;20043;-68
2022/06/07 08:26:46;;;;;;;6.45;2.40;;;;;;;;;;5089497;28;20435;-68
2022/06/07 08:29:12;;;;;;;7.25;2.20;;;;;;;;;;5081603;28;20058;-68
2022/06/07 08:31:39;;;;;;;7.63;2.08;;;;;;;;;;5086431;28;20036;-68
2022/06/07 08:39:36;;;;;;;9.27;2.17;;;;;;;;;;5089037;28;20036;-68
2022/06/07 08:42:02;;;;;;;7.00;2.50;;;;;;;;;;5086673;28;20436;-68
2022/06/07 08:44:30;;;;;;;6.25;2.35;;;;;;;;;;5078773;28;20468;-68
2022/06/07 08:47:00;;;;;;;13.82;2.80;;;;;;;;;;5076762;28;20124;-68
2022/06/07 08:49:26;;;;;;;9.23;2.70;;;;;;;;;;5095537;28;20169;-68
2022/06/07 08:51:57;;;;;;;6.97;2.47;;;;;;;;;;5093715;28;20486;-68
2022/06/07 08:54:30;;;;;;;3.67;2.45;;;;;;;;;;5079711;28;20044;-68
2022/06/07 08:56:58;;;;;;;7.78;2.13;;;;;;;;;;5080712;28;20297;-68
2022/06/07 08:59:24;;;;;;;9.65;3.40;;;;;;;;;;5091903;28;20039;-68
2022/06/07 09:01:53;;;;;;;11.18;2.90;;;;;;;;;;5089739;28;20055;-68
2022/06/07 09:04:22;;;;;;;12.63;3.13;;;;;;;;;;5093522;28;20032;-68
2022/06/07 09:06:50;;;;;;;7.82;2.92;;;;;;;;;;5083971;28;20041;-68
2022/06/07 09:09:19;;;;;;;8.95;2.65;;;;;;;;;;5080842;28;20407;-68
2022/06/07 09:14:29;;;;;;;12.25;4.20;;;;;;;;;;5082592;28;20083;-68
2022/06/07 09:16:56;;;;;;;8.63;3.00;;;;;;;;;;5099052;28;20036;-68
2022/06/07 09:19:25;;;;;;;8.02;3.85;;;;;;;;;;5095843;28;20506;-68
2022/06/07 09:21:52;;;;;;;10.10;3.72;;;;;;;;;;5091934;28;20397;-68
2022/06/07 09:24:37;;;;;;;8.68;2.72;;;;;;;;;;5091936;28;20085;-68
2022/06/07 09:27:06;;;;;;;11.00;3.00;;;;;;;;;;5093736;28;20500;-68
2022/06/07 09:29:36;;;;;;;8.82;3.40;;;;;;;;;;5103042;28;20044;-68
2022/06/07 09:32:08;;;;;;;9.70;2.78;;;;;;;;;;5078723;28;20055;-68
2022/06/07 09:34:34;;;;;;;8.03;2.73;;;;;;;;;;5094822;28;20044;-68
2022/06/07 09:37:13;;;;;;;7.05;2.55;;;;;;;;;;5086597;28;20036;-68
2022/06/07 09:39:41;;;;;;;4.70;2.33;;;;;;;;;;5081773;28;20044;-68
2022/06/07 09:42:07;;;;;;;8.73;3.25;;;;;;;;;;5090523;28;20060;-68
2022/06/07 09:44:38;;;;;;;9.38;2.05;;;;;;;;;;5103948;28;20052;-68
2022/06/07 09:47:20;;;;;;;4.82;1.83;;;;;;;;;;5084353;28;20047;-68
2022/06/07 09:49:48;;;;;;;7.25;2.45;;;;;;;;;;5093632;28;20050;-68
2022/06/07 09:52:20;;;;;;;5.55;2.28;;;;;;;;;;5090921;28;20067;-67
2022/06/07 09:54:47;;;;;;;8.10;2.45;;;;;;;;;;5101569;28;20040;-68
2022/06/07 09:57:21;;;;;;;6.45;2.28;;;;;;;;;;5084359;28;20043;-68
2022/06/07 10:00:04;;;;;;;7.63;2.45;;;;;;;;;;5087317;28;20115;-68
2022/06/07 10:02:30;;;;;;;;;;;;;;;;;;5108706;27;20044;-68
2022/06/07 10:05:14;;;;;;;11.52;2.55;;;;;;;;;;5094564;28;19926;-68
2022/06/07 10:07:47;;;;;;;6.30;2.70;;;;;;;;;;5079619;28;20113;-68
2022/06/07 10:10:15;;;;;;;10.35;2.35;;;;;;;;;;5083578;28;20054;-68
2022/06/07 10:12:51;;;;;;;7.00;2.22;;;;;;;;;;5086688;28;20040;-68
2022/06/07 10:15:31;;;;;;;7.38;2.15;;;;;;;;;;5087499;28;20045;-68
2022/06/07 10:18:16;;;;;;;5.90;1.98;;;;;;;;;;5096013;28;20046;-68
2022/06/07 10:20:51;;;;;;;6.55;2.25;;;;;;;;;;5089843;28;20044;-67
2022/06/07 10:23:39;;;;;;;7.40;2.08;;;;;;;;;;5101307;28;20561;-68
2022/06/07 10:26:08;;;;;;;7.07;2.75;;;;;;;;;;5083714;28;20150;-68
2022/06/07 10:28:38;;;;;;;5.88;2.00;;;;;;;;;;5091304;28;20398;-68
2022/06/07 10:31:12;;;;;;;7.85;2.28;;;;;;;;;;5082608;28;20085;-68
2022/06/07 10:34:00;;;;;;;3.88;1.83;;;;;;;;;;5091460;28;20370;-68
2022/06/07 10:36:35;;;;;;;6.50;1.80;;;;;;;;;;5089235;28;20036;-68
2022/06/07 10:39:14;;;;;;;4.20;1.95;;;;;;;;;;5087290;28;20039;-68
2022/06/07 10:41:52;;;;;;;4.50;2.17;;;;;;;;;;5089430;28;20046;-68
2022/06/07 10:44:24;;;;;;;3.92;1.60;;;;;;;;;;5079707;28;20271;-68
2022/06/07 10:46:51;;;;;;;3.22;1.73;;;;;;;;;;5084415;28;20507;-69
2022/06/07 10:49:33;;;;;;;4.70;1.52;;;;;;;;;;5096190;28;20041;-68
2022/06/07 10:52:20;;;;;;;4.82;1.92;;;;;;;;;;5095908;28;20043;-68
2022/06/07 10:54:55;;;;;;;4.13;1.50;;;;;;;;;;5089913;28;20039;-68
2022/06/07 10:57:30;;;;;;;6.78;1.73;;;;;;;;;;5082918;28;20046;-68
2022/06/07 10:59:58;;;;;;;5.82;2.05;;;;;;;;;;5089340;28;20077;-68
2022/06/07 11:02:51;;;;;;;5.75;1.90;;;;;;;;;;5087790;28;20040;-68
2022/06/07 11:11:06;;;;;;;6.47;2.58;;;;;;;;;;5096343;28;20482;-68
2022/06/07 11:13:43;;;;;;;3.90;1.50;;;;;;;;;;5083638;28;20043;-68
2022/06/07 11:16:28;;;;;;;4.43;1.65;;;;;;;;;;5091653;28;20044;-68
2022/06/07 11:18:54;;;;;;;5.07;1.85;;;;;;;;;;5100977;28;20040;-68
2022/06/07 11:21:34;;;;;;;5.40;1.35;;;;;;;;;;5097428;28;20040;-69
2022/06/07 11:24:06;;;;;;;3.38;1.30;;;;;;;;;;5083968;28;20040;-68
2022/06/07 11:26:58;;;;;;;2.97;1.63;;;;;;;;;;5076545;28;20072;-68
2022/06/07 11:29:27;;;;;;;12.07;2.63;;;;;;;;;;5086128;28;20036;-68
2022/06/07 11:31:53;;;;;;;3.65;1.45;;;;;;;;;;5092955;28;20178;-69
2022/06/07 11:34:25;;;;;;;2.15;1.30;;;;;;;;;;5086119;28;20043;-68
2022/06/07 11:37:11;;;;;;;2.97;1.15;;;;;;;;;;5083230;28;20042;-68
2022/06/07 11:39:40;;;;;;;3.50;1.58;;;;;;;;;;5074396;28;20037;-69
2022/06/07 11:42:16;;;;;;;3.83;1.60;;;;;;;;;;5089798;28;20044;-68
2022/06/07 11:44:42;;;;;;;3.40;1.38;;;;;;;;;;5080014;28;20586;-68
2022/06/07 11:47:09;;;;;;;3.35;1.50;;;;;;;;;;5091314;28;20266;-69
2022/06/07 11:49:48;;;;;;;4.22;1.95;;;;;;;;;;5094288;28;20059;-69
2022/06/07 11:52:14;;;;;;;2.88;1.77;;;;;;;;;;5080791;28;20046;-68
2022/06/07 11:54:48;;;;;;;2.47;1.65;;;;;;;;;;5090005;28;20067;-68
2022/06/07 11:57:20;;;;;;;7.38;1.70;;;;;;;;;;5090461;28;20347;-69
2022/06/07 11:59:47;;;;;;;6.57;1.53;;;;;;;;;;5088690;28;20367;-68
2022/06/07 12:02:14;;;;;;;7.75;3.13;;;;;;;;;;5097746;28;20301;-69
2022/06/07 12:04:45;;;;;;;6.57;2.08;;;;;;;;;;5091646;28;20035;-69
2022/06/07 12:07:22;;;;;;;3.03;1.33;;;;;;;;;;5074632;28;20033;-69
2022/06/07 12:09:51;;;;;;;5.07;1.63;;;;;;;;;;5084047;28;20036;-69
2022/06/07 12:12:22;;;;;;;2.83;1.10;;;;;;;;;;5099021;28;20494;-69
2022/06/07 12:14:50;;;;;;;3.97;1.50;;;;;;;;;;5090412;28;20116;-68
2022/06/07 12:17:20;;;;;;;3.30;1.40;;;;;;;;;;5090897;28;20529;-69
2022/06/07 12:19:47;;;;;;;2.83;1.55;;;;;;;;;;5087720;28;20048;-68
2022/06/07 12:22:15;;;;;;;6.57;2.15;;;;;;;;;;5091617;28;20044;-69
2022/06/07 12:24:42;;;;;;;6.53;1.42;;;;;;;;;;5096855;28;20046;-69
2022/06/07 12:27:16;;;;;;;5.88;2.08;;;;;;;;;;5090542;28;20059;-69
2022/06/07 12:29:44;;;;;;;4.57;1.90;;;;;;;;;;5091533;28;20036;-68
2022/06/07 12:32:36;;;;;;;6.50;2.75;;;;;;;;;;5086362;28;20442;-69
2022/06/07 12:35:18;;;;;;;3.33;1.67;;;;;;;;;;5090491;28;20142;-68
2022/06/07 12:37:45;;;;;;;3.40;1.33;;;;;;;;;;5096667;28;20040;-69
2022/06/07 12:40:26;;;;;;;7.18;2.08;;;;;;;;;;5088997;28;20051;-69
2022/06/07 12:42:52;;;;;;;4.47;1.67;;;;;;;;;;5095570;28;20053;-69
2022/06/07 12:45:24;;;;;;;5.03;1.88;;;;;;;;;;5085791;28;20049;-69
2022/06/07 12:47:58;;;;;;;6.30;2.10;;;;;;;;;;5102222;28;20027;-69
2022/06/07 12:50:28;;;;;;;6.60;2.13;;;;;;;;;;5092807;28;20478;-69
2022/06/07 12:52:56;;;;;;;8.45;2.47;;;;;;;;;;5094545;28;20032;-69
2022/06/07 12:55:24;;;;;;;6.63;2.10;;;;;;;;;;5082563;28;20519;-68
2022/06/07 12:57:52;;;;;;;10.00;2.50;;;;;;;;;;5088807;28;20116;-69
2022/06/07 13:00:21;;;;;;;6.88;2.03;;;;;;;;;;5094738;28;20040;-68
2022/06/07 13:02:49;;;;;;;5.75;2.50;;;;;;;;;;5088334;28;20044;-68
2022/06/07 13:05:20;;;;;;;7.60;2.92;;;;;;;;;;5092112;28;20031;-69
2022/06/07 13:07:51;;;;;;;7.55;1.80;;;;;;;;;;5096008;28;20035;-68
2022/06/07 13:10:19;;;;;;;6.10;1.88;;;;;;;;;;5078280;28;20072;-69
2022/06/07 13:12:47;;;;;;;3.92;2.00;;;;;;;;;;5093484;28;20040;-68
2022/06/07 13:15:21;;;;;;;6.50;2.35;;;;;;;;;;5093443;28;20105;-68
2022/06/07 13:18:03;;;;;;;6.63;3.00;;;;;;;;;;5095066;28;20055;-68
2022/06/07 13:20:32;;;;;;;6.82;2.35;;;;;;;;;;5083722;28;20062;-68
2022/06/07 13:22:58;;;;;;;12.35;2.45;;;;;;;;;;5094204;28;20508;-69
2022/06/07 13:25:29;;;;;;;5.25;2.88;;;;;;;;;;5081945;28;20036;-68
2022/06/07 13:28:03;;;;;;;9.48;3.50;;;;;;;;;;5104020;28;20035;-68
2022/06/07 13:30:32;;;;;;;7.45;2.20;;;;;;;;;;5093615;28;20505;-68
2022/06/07 13:33:07;;;;;;;11.43;3.28;;;;;;;;;;5096535;28;20050;-68
2022/06/07 13:35:40;;;;;;;8.98;2.38;;;;;;;;;;5084484;28;20040;-69
2022/06/07 13:38:20;;;;;;;3.75;2.03;;;;;;;;;;5088000;28;20052;-68
2022/06/07 13:40:46;;;;;;;8.68;3.10;;;;;;;;;;5087876;28;20409;-68
2022/06/07 13:43:13;;;;;;;5.60;2.70;;;;;;;;;;5097904;28;20058;-68
2022/06/07 13:45:47;;;;;;;7.18;1.83;;;;;;;;;;5091908;28;20139;-69
2022/06/07 13:54:15;;;;;;;8.70;2.42;;;;;;;;;;5090164;28;20066;-69
2022/06/07 13:56:41;;;;;;;6.00;2.00;;;;;;;;;;5086186;28;20144;-69
2022/06/07 13:59:11;;;;;;;6.85;2.92;;;;;;;;;;5090089;28;20074;-69
2022/06/07 14:01:38;;;;;;;4.63;1.90;;;;;;;;;;5085104;28;20089;-69
2022/06/07 14:04:14;;;;;;;5.70;2.08;;;;;;;;;;5096682;28;20105;-68
2022/06/07 14:06:42;;;;;;;6.90;2.38;;;;;;;;;;5087884;28;20039;-69
2022/06/07 14:09:19;;;;;;;3.53;1.60;;;;;;;;;;5072560;28;20044;-69
2022/06/07 14:11:46;;;;;;;8.00;2.47;;;;;;;;;;5088964;28;20098;-69
2022/06/07 14:14:13;;;;;;;7.72;2.28;;;;;;;;;;5081032;28;20039;-68
2022/06/07 14:16:49;;;;;;;8.73;1.95;;;;;;;;;;5094840;28;20036;-69
2022/06/07 14:19:20;;;;;;;5.05;1.75;;;;;;;;;;5088319;28;20051;-69
2022/06/07 14:21:46;;;;;;;3.20;1.60;;;;;;;;;;5083166;28;20187;-69
2022/06/07 14:24:17;;;;;;;3.10;1.63;;;;;;;;;;5075577;28;20028;-69
2022/06/07 14:26:43;;;;;;;5.38;1.80;;;;;;;;;;5087061;28;20071;-69
2022/06/07 14:29:10;;;;;;;10.90;3.13;;;;;;;;;;5092322;28;20051;-69
2022/06/07 14:31:36;;;;;;;6.70;1.70;;;;;;;;;;5092276;28;20046;-69
2022/06/07 14:34:03;;;;;;;5.40;2.55;;;;;;;;;;5088108;28;20127;-69
2022/06/07 14:36:29;;;;;;;5.93;1.77;;;;;;;;;;5094384;28;20044;-69
2022/06/07 14:38:56;;;;;;;7.03;2.53;;;;;;;;;;5091882;28;20477;-69
2022/06/07 14:41:22;;;;;;;3.75;1.88;;;;;;;;;;5085673;28;21906;-69
2022/06/07 14:43:48;;;;;;;6.18;1.90;;;;;;;;;;5092573;28;20044;-69
2022/06/07 14:46:24;;;;;;;9.40;2.25;;;;;;;;;;5088577;28;20177;-69
2022/06/07 14:49:04;;;;;;;6.45;2.17;;;;;;;;;;5080778;28;20498;-69
2022/06/07 14:51:34;;;;;;;6.53;1.70;;;;;;;;;;5079681;28;20051;-69
2022/06/07 14:54:01;;;;;;;4.05;1.63;;;;;;;;;;5091769;28;20495;-68
2022/06/07 14:56:30;;;;;;;3.53;1.90;;;;;;;;;;5088996;28;20048;-69
2022/06/07 14:58:56;;;;;;;5.20;2.33;;;;;;;;;;5092676;28;20124;-69
2022/06/07 15:01:35;;;;;;;7.15;2.15;;;;;;;;;;5088190;28;20047;-69
2022/06/07 15:04:06;;;;;;;4.47;2.13;;;;;;;;;;5090329;28;20039;-69
2022/06/07 15:06:34;;;;;;;5.40;1.83;;;;;;;;;;5093497;28;20607;-69
2022/06/07 15:09:00;;;;;;;7.95;1.95;;;;;;;;;;5098911;28;20043;-69
2022/06/07 15:11:36;;;;;;;6.22;1.95;;;;;;;;;;5092823;28;20485;-69
2022/06/07 15:14:04;;;;;;;6.68;2.00;;;;;;;;;;5087963;28;20036;-69
2022/06/07 15:16:30;;;;;;;6.75;1.95;;;;;;;;;;5073069;28;20041;-69
2022/06/07 15:18:57;;;;;;;7.53;1.90;;;;;;;;;;5080432;28;20408;-68